KATY/ATY METAR and TAF weather

Enter ICAO airport designator
Station Type Date Time Source
KATY METAR 2022/05/26 04:53 UTC NOAA

KATY 260453Z AUTO 35004KT 10SM FEW019 07/06 A2990 RMK AO2 SLP133 T00720061


Station Type Date Time Source
KATY Decoded METAR 2022/05/26 04:53 UTC NOAA

WATERTOWN MUNICIPAL AIRPORT, SD, United States (KATY) 44-54N 097-09W 532M
May 26, 2022 - 12:53 AM EDT / 2022.05.26 0453 UTC
Wind: from the N (350 degrees) at 5 MPH (4 KT):0
Visibility: 10 mile(s):0
Sky conditions: mostly clear
Temperature: 45.0 F (7.2 C)
Dew Point: 43.0 F (6.1 C)
Relative Humidity: 92%
Pressure (altimeter): 29.9 in. Hg (1012 hPa)
ob: KATY 260453Z AUTO 35004KT 10SM FEW019 07/06 A2990 RMK AO2 SLP133 T00720061
cycle: 5

Station Type Date Time Source
KATY TAF 2022/05/26 06:22 UTC NOAA

TAF KATY 260520Z 2606/2706 VRB05KT P6SM SCT017
TEMPO 2606/2610 BKN017
FM261000 VRB04KT 6SM BR OVC007
FM261400 VRB04KT P6SM SCT250

Example: see airport list